KMWH/MWH METAR and TAF weather

Enter ICAO airport designator
Station Type Date Time Source
KMWH METAR 2020/08/15 15:52 UTC NOAA

KMWH 151552Z 00000KT 10SM CLR 21/05 A3009 RMK AO2 SLP184 T02110050


Station Type Date Time Source
KMWH Decoded METAR 2020/08/15 15:52 UTC NOAA

GRANT COUNTY AIRPORT, WA, United States (KMWH) 47-12N 119-19W 362M
Aug 15, 2020 - 11:52 AM EDT / 2020.08.15 1552 UTC
Wind: Calm:0
Visibility: 10 mile(s):0
Sky conditions: clear
Temperature: 70.0 F (21.1 C)
Dew Point: 41.0 F (5.0 C)
Relative Humidity: 34%
Pressure (altimeter): 30.09 in. Hg (1018 hPa)
ob: KMWH 151552Z 00000KT 10SM CLR 21/05 A3009 RMK AO2 SLP184 T02110050
cycle: 16

Station Type Date Time Source
KMWH TAF 2020/08/15 12:30 UTC NOAA

TAF KMWH 151128Z 1512/1612 VRB04KT P6SM SKC

Example: see airport list